Terminal Aerodrome Forecast
Issued by NWS

Home | Current Version | Previous Version | Text Only | Print | Product List | Glossary On
Versions: 1 2 3 4 5 6 7 8 9 10 11 12 13 14 15 16 17 18 19 20 21
000
FTUS43 KDVN 301734
TAFCID
TAF
KCID 301734Z 3018/3118 36016G24KT P6SM VCSH OVC012
     FM302000 02017G25KT P6SM BKN025
     FM310100 06008KT P6SM SCT030
     FM310600 03008KT P6SM SKC=

USA.gov is the U.S. government's official web portal to all federal, state and local government web resources and services.